Time;durP1;ratioP1;P1;durP2;ratioP2;P2;SDS_P1;SDS_P2;PMS_P1;PMS_P2;Temp;Humidity;BMP_temperature;BMP_pressure;BME280_temperature;BME280_humidity;BME280_pressure;Samples;Min_cycle;Max_cycle;Signal;HPM_P1;HPM_P2
2022/09/14 07:35:47;;;;;;;5.38;0.73;;;;;;;43.59;17.63;99387.47;2105102;27;20443;-74
2022/09/14 07:36:54;;;;;;;4.72;0.90;;;;;;;44.28;17.14;99389.50;2097145;28;20145;-74
2022/09/14 07:37:58;;;;;;;3.67;0.90;;;;;;;42.14;18.64;99386.44;2087976;28;20037;-73
2022/09/14 07:39:05;;;;;;;5.70;1.00;;;;;;;41.32;19.11;99387.19;2086346;28;20037;-74
2022/09/14 07:40:15;;;;;;;5.07;0.80;;;;;;;38.40;22.12;99390.25;2097680;28;20041;-74
2022/09/14 07:41:22;;;;;;;3.83;1.08;;;;;;;41.31;19.81;99382.06;2104675;28;20047;-74
2022/09/14 07:42:25;;;;;;;5.47;0.98;;;;;;;41.81;18.96;99392.34;2105528;28;20047;-74
2022/09/14 07:43:29;;;;;;;4.93;0.80;;;;;;;41.06;19.58;99379.09;2093019;28;20036;-73
2022/09/14 07:44:35;;;;;;;3.63;0.90;;;;;;;42.29;18.48;99391.75;2084447;28;20029;-73
2022/09/14 07:45:38;;;;;;;2.72;0.90;;;;;;;41.45;19.37;99392.28;2080769;28;20032;-73
2022/09/14 07:46:45;;;;;;;6.00;0.85;;;;;;;39.06;21.18;99396.00;2092806;28;20055;-74
2022/09/14 07:47:49;;;;;;;4.32;1.00;;;;;;;37.88;22.59;99395.84;2099557;28;20036;-74
2022/09/14 07:48:56;;;;;;;3.72;1.20;;;;;;;35.55;24.89;99391.31;2088580;28;20056;-73
2022/09/14 07:50:02;;;;;;;2.80;0.90;;;;;;;36.14;24.37;99397.00;2089089;28;20123;-73
2022/09/14 07:51:09;;;;;;;6.07;1.23;;;;;;;40.14;21.10;99390.22;2081127;28;20040;-73
2022/09/14 07:52:12;;;;;;;3.25;1.20;;;;;;;41.50;19.72;99396.38;2090036;28;20048;-73
2022/09/14 07:53:14;;;;;;;1.80;0.70;;;;;;;40.08;20.87;99389.44;2076888;28;20052;-73
2022/09/14 07:54:20;;;;;;;2.67;1.02;;;;;;;41.25;19.41;99387.75;2078509;28;20795;-73
2022/09/14 07:55:25;;;;;;;2.75;1.05;;;;;;;41.95;18.75;99382.75;2086932;28;20049;-73
2022/09/14 07:56:30;;;;;;;5.35;0.90;;;;;;;42.50;18.52;99406.19;2092479;28;20039;-73
2022/09/14 07:57:32;;;;;;;1.98;0.85;;;;;;;42.76;18.46;99396.44;2095442;28;20068;-73
2022/09/14 07:58:34;;;;;;;5.63;1.10;;;;;;;43.45;17.69;99390.22;2079674;28;20044;-73
2022/09/14 07:59:42;;;;;;;5.78;1.10;;;;;;;43.82;17.63;99397.16;2089274;28;20029;-73
2022/09/14 08:00:50;;;;;;;3.75;0.95;;;;;;;43.20;17.34;99400.06;2080919;28;20037;-73
2022/09/14 08:01:55;;;;;;;2.80;1.10;;;;;;;43.22;17.41;99391.81;2075704;28;20048;-73
2022/09/14 08:02:58;;;;;;;4.00;1.02;;;;;;;43.65;17.27;99402.31;2097026;28;20040;-73
2022/09/14 08:04:08;;;;;;;5.25;1.13;;;;;;;42.87;17.57;99389.91;2096231;28;20036;-73
2022/09/14 08:05:11;;;;;;;2.63;0.85;;;;;;;41.50;18.52;99397.13;2089247;28;20412;-73
2022/09/14 08:06:25;;;;;;;4.03;1.10;;;;;;;39.36;20.29;99405.63;2088736;28;20436;-74
2022/09/14 08:07:29;;;;;;;3.08;0.88;;;;;;;40.18;19.94;99387.91;2082199;28;20052;-73
2022/09/14 08:08:34;;;;;;;2.58;0.70;;;;;;;38.80;20.82;99396.09;2088373;28;20032;-73
2022/09/14 08:09:41;;;;;;;1.83;0.90;;;;;;;41.20;19.31;99396.97;2093567;28;20039;-73
2022/09/14 08:10:43;;;;;;;2.97;1.05;;;;;;;42.19;17.70;99386.94;2087638;28;20527;-73
2022/09/14 08:11:47;;;;;;;6.32;0.88;;;;;;;41.82;17.91;99382.56;2087697;28;20033;-73
2022/09/14 08:13:09;;;;;;;3.22;1.00;;;;;;;42.66;17.89;99389.56;2087758;28;20025;-74
2022/09/14 08:14:14;;;;;;;3.53;1.08;;;;;;;43.54;16.44;99391.16;2089137;28;20560;-73
2022/09/14 08:15:21;;;;;;;5.03;1.10;;;;;;;43.56;16.82;99392.16;2095494;28;20040;-73
2022/09/14 08:16:27;;;;;;;3.67;0.90;;;;;;;41.79;18.07;99389.25;2097845;28;20538;-74
2022/09/14 08:17:34;;;;;;;1.88;0.90;;;;;;;42.75;18.22;99397.72;2096337;28;20044;-74
2022/09/14 08:18:39;;;;;;;3.05;0.90;;;;;;;40.67;18.95;99405.34;2096847;28;20033;-73
2022/09/14 08:19:43;;;;;;;3.72;0.80;;;;;;;37.28;22.19;99386.25;2096778;28;20071;-73
2022/09/14 08:20:45;;;;;;;4.68;0.70;;;;;;;35.41;23.49;99392.06;2095451;28;20032;-73
2022/09/14 08:21:47;;;;;;;2.53;1.00;;;;;;;33.98;25.47;99401.59;2088802;28;20056;-73
2022/09/14 08:22:56;;;;;;;6.15;1.90;;;;;;;36.68;23.36;99394.06;2089285;28;20044;-73
2022/09/14 08:24:04;;;;;;;4.25;1.70;;;;;;;36.85;23.44;99391.50;2084953;28;20036;-73
2022/09/14 08:25:08;;;;;;;3.50;1.10;;;;;;;39.75;20.70;99399.34;2094547;28;20039;-73
2022/09/14 08:26:23;;;;;;;4.43;1.30;;;;;;;41.22;18.84;99400.81;2087203;28;20098;-73
2022/09/14 08:27:26;;;;;;;5.95;1.40;;;;;;;41.17;19.02;99393.13;2096358;28;20151;-74
2022/09/14 08:28:28;;;;;;;3.53;1.10;;;;;;;41.07;19.22;99397.53;2096452;28;20032;-72
2022/09/14 08:29:30;;;;;;;6.20;1.10;;;;;;;41.77;18.47;99389.00;2097221;28;20031;-75
2022/09/14 08:30:33;;;;;;;5.75;2.28;;;;;;;41.77;18.72;99383.34;2094197;28;20044;-73
2022/09/14 08:31:39;;;;;;;4.78;2.47;;;;;;;42.02;18.83;99379.34;2094887;28;20110;-74
2022/09/14 08:32:41;;;;;;;16.55;6.47;;;;;;;42.34;18.29;99384.50;2095737;28;20035;-74
2022/09/14 08:33:45;;;;;;;7.38;4.38;;;;;;;42.18;18.41;99380.50;2087885;28;20047;-74
2022/09/14 08:34:50;;;;;;;4.55;2.03;;;;;;;42.70;18.01;99378.75;2095144;28;20028;-76
2022/09/14 08:35:52;;;;;;;4.03;1.90;;;;;;;40.00;19.97;99386.34;2096248;28;20028;-78
2022/09/14 08:36:57;;;;;;;6.38;1.48;;;;;;;40.14;20.18;99376.13;2095327;28;20758;-76
2022/09/14 08:37:59;;;;;;;4.30;1.80;;;;;;;40.59;19.79;99387.38;2095755;28;20028;-75
2022/09/14 08:39:03;;;;;;;6.82;3.15;;;;;;;40.86;19.80;99383.00;2096066;28;20028;-74
2022/09/14 08:40:10;;;;;;;4.20;1.77;;;;;;;41.04;19.27;99383.72;2095224;28;20032;-75
2022/09/14 08:41:23;;;;;;;6.70;2.58;;;;;;;41.33;19.02;99387.94;2086973;28;20168;-74
2022/09/14 08:42:31;;;;;;;6.88;3.35;;;;;;;42.29;18.15;99380.44;2094434;28;20036;-74
2022/09/14 08:43:34;;;;;;;7.82;2.88;;;;;;;41.13;18.70;99387.00;2096247;28;20095;-70
2022/09/14 08:44:57;;;;;;;4.00;1.73;;;;;;;41.83;18.75;99384.09;2095079;28;20052;-76
2022/09/14 08:46:07;;;;;;;2.40;1.15;;;;;;;41.63;18.31;99388.84;2089230;28;20052;-72
2022/09/14 08:47:14;;;;;;;6.95;3.55;;;;;;;40.07;19.80;99385.84;2081860;28;20579;-73
2022/09/14 08:48:36;;;;;;;4.70;1.67;;;;;;;41.51;18.95;99387.38;2088965;28;20029;-73
2022/09/14 08:49:44;;;;;;;7.50;1.10;;;;;;;41.59;18.51;99385.53;2090286;28;20784;-72
2022/09/14 08:50:46;;;;;;;2.63;1.35;;;;;;;42.40;17.70;99379.56;2090025;28;20021;-74
2022/09/14 08:51:54;;;;;;;2.22;1.20;;;;;;;42.67;17.42;99380.56;2097009;28;20040;-73
2022/09/14 08:53:05;;;;;;;2.80;2.03;;;;;;;43.64;16.90;99389.47;2097714;28;20803;-73
2022/09/14 08:54:17;;;;;;;5.47;1.40;;;;;;;43.65;16.71;99396.66;2080224;28;20380;-73
2022/09/14 08:55:41;;;;;;;4.28;1.40;;;;;;;42.21;17.75;99378.69;2082805;28;20033;-74
2022/09/14 08:57:08;;;;;;;8.05;1.20;;;;;;;42.38;17.21;99390.63;2080099;28;20036;-74
2022/09/14 08:58:57;;;;;;;3.00;1.40;;;;;;;41.08;18.85;99389.84;2085435;28;20431;-72
2022/09/14 08:59:59;;;;;;;5.18;1.48;;;;;;;42.01;18.21;99397.59;2088343;28;20032;-74
2022/09/14 09:01:21;;;;;;;8.45;1.85;;;;;;;42.09;17.65;99386.47;2090672;28;20036;-74
2022/09/14 09:02:35;;;;;;;5.78;1.20;;;;;;;43.15;17.07;99393.19;2089855;28;20036;-75
2022/09/14 09:04:02;;;;;;;6.63;1.05;;;;;;;43.93;16.15;99388.53;2091004;28;20028;-75
2022/09/14 09:05:36;;;;;;;5.82;1.55;;;;;;;44.62;15.80;99391.75;2090422;28;20040;-75
2022/09/14 09:07:00;;;;;;;2.55;0.80;;;;;;;40.32;19.13;99400.19;2094672;28;20052;-74
2022/09/14 09:08:35;;;;;;;1.77;1.02;;;;;;;41.68;18.56;99393.69;2089474;28;20064;-74
2022/09/14 09:09:49;;;;;;;3.45;0.93;;;;;;;39.01;20.28;99391.16;2090580;28;20055;-73
2022/09/14 09:11:04;;;;;;;3.25;1.23;;;;;;;39.24;19.88;99400.44;2082428;28;20029;-72
2022/09/14 09:12:33;;;;;;;5.25;1.23;;;;;;;38.58;20.99;99414.34;2084210;28;20477;-74
2022/09/14 09:13:44;;;;;;;5.65;1.20;;;;;;;39.39;20.11;99401.03;2081011;28;20026;-72
2022/09/14 09:15:05;;;;;;;6.05;1.35;;;;;;;37.53;22.30;99405.16;2081528;28;20044;-74
2022/09/14 09:16:10;;;;;;;7.45;1.05;;;;;;;37.35;22.26;99413.84;2089365;28;20020;-75
2022/09/14 09:17:26;;;;;;;4.55;1.00;;;;;;;34.68;24.89;99418.34;2082332;28;20037;-74
2022/09/14 09:19:01;;;;;;;4.80;0.80;;;;;;;31.89;27.90;99413.16;2088269;28;20435;-74
2022/09/14 09:20:15;;;;;;;5.10;0.98;;;;;;;36.32;23.69;99414.84;2090082;28;20447;-73
2022/09/14 09:21:43;;;;;;;8.45;1.00;;;;;;;37.52;22.61;99408.47;2089270;28;20511;-73
2022/09/14 09:23:09;;;;;;;3.17;0.80;;;;;;;36.83;22.24;99408.03;2089143;28;20780;-75
2022/09/14 09:24:28;;;;;;;4.25;0.98;;;;;;;33.02;26.22;99415.63;2070115;28;20056;-73
2022/09/14 09:25:59;;;;;;;2.30;0.90;;;;;;;34.47;25.32;99411.75;2075147;28;20030;-74
2022/09/14 09:27:09;;;;;;;3.55;0.82;;;;;;;38.24;21.83;99418.91;2078948;28;20487;-73
2022/09/14 09:28:15;;;;;;;1.73;1.13;;;;;;;39.64;20.25;99416.19;2097915;28;20051;-74
2022/09/14 09:29:21;;;;;;;5.45;1.10;;;;;;;40.38;19.19;99400.19;2088659;28;20104;-72
2022/09/14 09:30:44;;;;;;;5.13;0.93;;;;;;;40.54;19.50;99410.69;2090357;28;20052;-75
2022/09/14 09:31:58;;;;;;;5.68;1.10;;;;;;;41.05;18.99;99410.63;2089576;28;20044;-74
2022/09/14 09:33:23;;;;;;;7.13;1.17;;;;;;;40.85;19.14;99411.69;2093774;28;20051;-73
2022/09/14 09:34:47;;;;;;;9.95;1.23;;;;;;;40.56;18.92;99402.50;2087205;28;20108;-74
2022/09/14 09:36:07;;;;;;;5.80;1.20;;;;;;;40.82;19.44;99404.25;2088155;28;20115;-78
2022/09/14 09:37:19;;;;;;;4.97;0.90;;;;;;;40.67;18.61;99408.16;2089490;28;20021;-75
2022/09/14 09:38:28;;;;;;;3.50;1.42;;;;;;;39.25;20.23;99401.97;2090918;28;20037;-75
2022/09/14 09:39:38;;;;;;;4.85;0.98;;;;;;;38.63;20.55;99410.06;2090083;28;20024;-74
2022/09/14 09:40:43;;;;;;;;;;;;;;;37.98;21.48;99414.06;2089990;28;20044;-76
2022/09/14 09:41:56;;;;;;;2.05;1.15;;;;;;;36.69;22.85;99408.84;2081938;28;19916;-73
2022/09/14 09:43:13;;;;;;;5.65;0.90;;;;;;;34.47;25.21;99415.31;2075397;28;20352;-84
2022/09/14 09:44:22;;;;;;;3.13;0.80;;;;;;;32.83;26.95;99411.97;2077561;28;20045;-79
2022/09/14 09:45:49;;;;;;;5.50;1.77;;;;;;;31.59;28.96;99410.59;2083446;28;20045;-87
2022/09/14 09:47:00;;;;;;;3.70;1.05;;;;;;;30.07;31.37;99414.88;2096059;28;20036;-86
2022/09/14 09:48:09;;;;;;;4.97;0.90;;;;;;;29.69;31.42;99423.06;2088603;28;20435;-88
2022/09/14 09:49:35;;;;;;;2.40;0.95;;;;;;;28.66;33.21;99421.56;2075277;28;20072;-87
2022/09/14 09:51:05;;;;;;;11.25;1.60;;;;;;;27.76;34.98;99428.06;2085196;28;20633;-88
2022/09/14 09:52:15;;;;;;;5.07;1.20;;;;;;;26.92;36.10;99427.03;2098317;28;20047;-80
2022/09/14 09:53:23;;;;;;;3.53;1.27;;;;;;;26.52;37.23;99431.56;2088760;28;20028;-78
2022/09/14 09:54:35;;;;;;;12.65;2.60;;;;;;;26.24;38.63;99421.66;2072811;28;20400;-79
2022/09/14 09:55:40;;;;;;;3.95;0.82;;;;;;;25.97;38.62;99432.59;2077577;28;20461;-86
2022/09/14 09:56:52;;;;;;;4.55;1.50;;;;;;;25.61;39.23;99441.19;2084416;28;20412;-79
2022/09/14 09:57:55;;;;;;;3.72;1.10;;;;;;;25.32;40.02;99432.41;2083297;28;20420;-81
2022/09/14 09:58:58;;;;;;;7.03;1.20;;;;;;;25.30;40.02;99432.03;2075222;28;20021;-86
2022/09/14 10:00:10;;;;;;;2.63;1.25;;;;;;;24.80;41.72;99446.88;2081043;28;20048;-72
2022/09/14 10:01:33;;;;;;;12.80;1.65;;;;;;;24.75;41.54;99439.06;2088232;28;20091;-85
2022/09/14 10:02:41;;;;;;;3.22;1.30;;;;;;;24.58;42.32;99442.69;2079605;28;20030;-84
2022/09/14 10:04:00;;;;;;;2.58;1.35;;;;;;;24.45;42.90;99442.34;2082593;28;20677;-82
2022/09/14 10:05:20;;;;;;;5.18;1.40;;;;;;;24.38;43.34;99447.84;2081505;28;20065;-81
2022/09/14 10:06:27;;;;;;;6.68;4.03;;;;;;;24.19;43.95;99446.34;2086427;28;20041;-78
2022/09/14 10:07:52;;;;;;;12.10;6.35;;;;;;;24.12;43.76;99449.91;2090124;28;20054;-78
2022/09/14 10:09:31;;;;;;;5.95;2.08;;;;;;;24.05;44.29;99450.72;2086029;28;20036;-80
2022/09/14 10:10:33;;;;;;;4.40;1.05;;;;;;;23.91;44.92;99450.75;2082750;28;20044;-81
2022/09/14 10:11:56;;;;;;;2.80;1.40;;;;;;;23.73;45.61;99445.28;2089981;28;20045;-80
2022/09/14 10:12:58;;;;;;;3.85;1.08;;;;;;;23.85;46.06;99446.06;2088224;28;20532;-76
2022/09/14 10:14:03;;;;;;;3.65;1.17;;;;;;;24.07;45.90;99430.31;2081912;28;20052;-77
2022/09/14 10:15:27;;;;;;;4.53;0.95;;;;;;;24.42;45.08;99437.66;2081774;28;20032;-77
2022/09/14 10:16:40;;;;;;;3.72;1.05;;;;;;;24.72;44.96;99446.16;2089926;28;20056;-77
2022/09/14 10:18:03;;;;;;;3.40;1.10;;;;;;;24.82;44.26;99441.78;2088917;28;20040;-79
2022/09/14 10:19:20;;;;;;;9.45;2.88;;;;;;;24.77;44.38;99444.94;2086190;28;20091;-74
2022/09/14 10:20:24;;;;;;;11.10;6.68;;;;;;;24.65;44.37;99435.19;2084139;28;20035;-73
2022/09/14 10:21:30;;;;;;;8.98;3.47;;;;;;;24.49;44.65;99437.63;2081260;28;20044;-74
2022/09/14 10:22:42;;;;;;;16.15;10.20;;;;;;;24.16;45.21;99436.94;2074736;28;20037;-74
2022/09/14 10:23:45;;;;;;;7.88;3.47;;;;;;;23.85;45.85;99435.06;2073668;28;20048;-74
2022/09/14 10:25:14;;;;;;;4.00;1.52;;;;;;;23.70;46.14;99442.53;2064057;28;20493;-76
2022/09/14 10:26:24;;;;;;;6.65;4.55;;;;;;;23.57;46.60;99445.66;2089845;28;20032;-73
2022/09/14 10:27:44;;;;;;;5.75;2.10;;;;;;;23.44;46.93;99446.47;2079468;28;20033;-73
2022/09/14 10:28:51;;;;;;;6.68;2.75;;;;;;;23.16;47.33;99445.28;2083559;28;20401;-73
2022/09/14 10:29:55;;;;;;;4.03;1.55;;;;;;;23.02;48.09;99448.00;2082168;28;20029;-73
2022/09/14 10:31:05;;;;;;;3.92;1.63;;;;;;;22.92;48.42;99438.56;2081153;28;20029;-73
2022/09/14 10:32:25;;;;;;;3.88;1.30;;;;;;;23.04;48.51;99442.91;2081684;28;20484;-73
2022/09/14 10:33:31;;;;;;;2.65;1.38;;;;;;;23.33;47.83;99443.72;2078706;28;20714;-76
2022/09/14 10:34:36;;;;;;;3.05;1.05;;;;;;;23.44;46.98;99443.72;2074460;28;20576;-74
2022/09/14 10:36:01;;;;;;;7.78;1.10;;;;;;;23.62;46.36;99436.25;2073883;28;20042;-74
2022/09/14 10:37:17;;;;;;;2.78;1.17;;;;;;;23.70;46.88;99440.56;2086589;28;20037;-74
2022/09/14 10:38:34;;;;;;;2.67;1.30;;;;;;;23.53;47.06;99435.88;2094238;28;22767;-73
2022/09/14 10:39:49;;;;;;;3.25;0.95;;;;;;;23.75;46.55;99440.19;2095862;28;20404;-74
2022/09/14 10:41:15;;;;;;;3.60;1.35;;;;;;;23.52;46.60;99428.84;2089898;28;20032;-74
2022/09/14 10:42:33;;;;;;;6.20;1.30;;;;;;;23.47;47.51;99437.44;2084636;28;20029;-74
2022/09/14 10:44:09;;;;;;;2.13;1.17;;;;;;;23.48;47.57;99449.97;2083296;28;20032;-73
2022/09/14 10:45:12;;;;;;;4.82;1.10;;;;;;;23.42;47.67;99437.84;2082025;28;20048;-73
2022/09/14 10:46:29;;;;;;;3.58;0.90;;;;;;;23.53;46.39;99442.13;2079424;28;20041;-73
2022/09/14 10:48:05;;;;;;;2.55;1.00;;;;;;;23.71;46.49;99447.66;2084526;28;20049;-73
2022/09/14 10:49:25;;;;;;;4.70;1.23;;;;;;;23.66;46.13;99430.75;2087177;28;20028;-72
2022/09/14 10:50:39;;;;;;;5.50;4.03;;;;;;;23.55;46.27;99433.53;2079838;28;20041;-70
2022/09/14 10:51:59;;;;;;;9.35;5.80;;;;;;;23.38;47.14;99439.78;2072572;28;20033;-72
2022/09/14 10:53:17;;;;;;;5.55;1.80;;;;;;;23.28;46.89;99436.66;2084999;28;20024;-73
2022/09/14 10:54:27;;;;;;;8.02;2.53;;;;;;;23.14;47.46;99431.19;2070805;28;20768;-73
2022/09/14 10:55:41;;;;;;;6.03;3.60;;;;;;;22.81;47.87;99430.31;2082636;28;20131;-76
2022/09/14 10:57:04;;;;;;;5.40;1.40;;;;;;;22.91;48.12;99431.50;2080429;28;20698;-75
2022/09/14 10:58:26;;;;;;;4.40;0.90;;;;;;;22.99;48.36;99427.63;2083199;28;20043;-73
2022/09/14 10:59:46;;;;;;;4.00;0.90;;;;;;;22.88;48.62;99446.75;2092054;28;20029;-73
2022/09/14 11:00:59;;;;;;;3.30;1.75;;;;;;;22.64;47.88;99436.53;2082340;28;20032;-74
2022/09/14 11:02:12;;;;;;;2.88;1.20;;;;;;;22.51;48.60;99446.25;2071842;28;20289;-81
2022/09/14 11:03:47;;;;;;;4.05;0.90;;;;;;;22.31;48.78;99443.84;2075393;28;20045;-75
2022/09/14 11:05:14;;;;;;;1.98;0.55;;;;;;;22.13;48.41;99441.00;2090661;28;20025;-74
2022/09/14 11:06:30;;;;;;;3.42;1.10;;;;;;;22.00;48.76;99458.91;2085529;28;20048;-75
2022/09/14 11:07:50;;;;;;;5.60;1.27;;;;;;;22.06;48.36;99446.44;2088552;28;20044;-74
2022/09/14 11:09:24;;;;;;;5.15;1.38;;;;;;;22.00;48.78;99445.22;2088845;28;20040;-76
2022/09/14 11:11:11;;;;;;;2.45;1.25;;;;;;;21.81;48.70;99451.75;2057223;28;20038;-75
2022/09/14 11:12:31;;;;;;;3.78;0.98;;;;;;;22.18;48.01;99437.91;2076518;28;20033;-75
2022/09/14 11:13:47;;;;;;;5.03;0.80;;;;;;;22.16;48.48;99445.75;2083350;28;20028;-75
2022/09/14 11:15:27;;;;;;;4.82;0.77;;;;;;;22.06;48.73;99445.66;2088614;28;20040;-75
2022/09/14 11:16:56;;;;;;;3.80;0.77;;;;;;;21.90;49.45;99446.72;2083335;28;20044;-74
2022/09/14 11:18:35;;;;;;;3.65;0.90;;;;;;;21.49;49.99;99435.91;2078746;28;20045;-75
2022/09/14 11:19:43;;;;;;;2.60;0.63;;;;;;;21.42;50.62;99448.75;2046524;28;20058;-75
2022/09/14 11:20:59;;;;;;;1.77;0.63;;;;;;;21.50;50.33;99448.44;2073478;28;20050;-75
2022/09/14 11:22:17;;;;;;;4.25;0.60;;;;;;;21.61;50.72;99448.50;2083992;28;20377;-76
2022/09/14 11:23:55;;;;;;;1.77;0.80;;;;;;;21.79;50.70;99456.84;2086475;28;20051;-84
2022/09/14 11:25:04;;;;;;;3.30;1.15;;;;;;;21.65;50.27;99448.53;2073723;28;20076;-81
2022/09/14 11:26:30;;;;;;;5.13;0.90;;;;;;;21.45;50.81;99456.19;2081304;28;20063;-78
2022/09/14 11:27:39;;;;;;;3.10;0.73;;;;;;;21.46;51.54;99447.59;2081404;28;20369;-79
2022/09/14 11:28:43;;;;;;;3.80;0.73;;;;;;;21.67;51.14;99449.72;2088480;28;20041;-78
2022/09/14 11:30:01;;;;;;;2.45;0.70;;;;;;;21.83;51.21;99449.44;2081981;28;20273;-82
2022/09/14 11:31:25;;;;;;;1.27;0.60;;;;;;;21.95;50.52;99442.88;2091462;28;20036;-72
2022/09/14 11:32:33;;;;;;;3.88;0.90;;;;;;;21.87;50.21;99443.97;2090802;28;20028;-77
2022/09/14 11:33:51;;;;;;;4.07;1.02;;;;;;;21.98;49.56;99445.63;2082982;28;20426;-73
2022/09/14 11:35:16;;;;;;;3.20;0.70;;;;;;;21.95;49.67;99440.13;2073839;28;20044;-74
2022/09/14 11:36:21;;;;;;;3.60;0.70;;;;;;;21.84;49.46;99442.78;2087184;28;20036;-72
2022/09/14 11:37:34;;;;;;;3.00;0.70;;;;;;;21.58;50.36;99441.06;2095817;28;20032;-74
2022/09/14 11:39:00;;;;;;;5.90;1.33;;;;;;;21.28;50.57;99452.13;2085833;28;20606;-74
2022/09/14 11:40:05;;;;;;;5.78;0.85;;;;;;;21.01;51.89;99451.47;2069716;28;20040;-74
2022/09/14 11:41:26;;;;;;;1.58;0.70;;;;;;;20.95;52.42;99459.22;2072504;28;20417;-72
2022/09/14 11:42:44;;;;;;;2.47;0.82;;;;;;;20.78;53.81;99451.66;2088772;28;20099;-75
2022/09/14 11:43:49;;;;;;;3.50;1.00;;;;;;;20.67;53.57;99456.19;2087610;28;20043;-74
2022/09/14 11:45:01;;;;;;;4.30;0.88;;;;;;;20.67;53.50;99458.94;2088043;28;20049;-73
2022/09/14 11:46:10;;;;;;;3.47;1.08;;;;;;;20.58;54.18;99454.53;2088451;28;20031;-75
2022/09/14 11:47:23;;;;;;;2.28;0.80;;;;;;;20.54;54.38;99452.94;2087423;28;20044;-74
2022/09/14 11:48:31;;;;;;;2.83;1.15;;;;;;;20.44;54.72;99459.81;2090045;28;20037;-78
2022/09/14 11:49:33;;;;;;;6.13;1.65;;;;;;;20.34;55.21;99455.00;2080640;28;20044;-73
2022/09/14 11:50:44;;;;;;;5.28;1.00;;;;;;;20.33;55.72;99450.69;2081596;28;20049;-77
2022/09/14 11:51:51;;;;;;;7.97;0.88;;;;;;;20.29;55.72;99447.13;2079704;28;20673;-75
2022/09/14 11:53:15;;;;;;;2.30;0.95;;;;;;;20.30;55.32;99454.16;2082410;28;20084;-74
2022/09/14 11:54:21;;;;;;;3.17;0.95;;;;;;;20.29;55.21;99455.31;2088295;28;20032;-77
2022/09/14 11:55:32;;;;;;;8.63;1.17;;;;;;;20.48;54.72;99455.16;2078468;28;20063;-79
2022/09/14 11:56:38;;;;;;;2.90;0.93;;;;;;;20.69;54.00;99446.47;2092621;28;20067;-80
2022/09/14 11:57:48;;;;;;;8.18;0.90;;;;;;;20.74;53.46;99461.72;2093263;28;20032;-79
2022/09/14 11:58:57;;;;;;;;;;;;;;;20.52;54.13;99460.69;2089607;28;20042;-80
2022/09/14 12:00:11;;;;;;;3.17;0.82;;;;;;;20.67;53.77;99456.19;2088831;28;19911;-80
2022/09/14 12:01:39;;;;;;;4.70;0.60;;;;;;;20.84;53.27;99450.16;2086131;28;20108;-86
2022/09/14 12:02:56;;;;;;;7.70;0.85;;;;;;;20.67;53.52;99454.25;2087832;28;20051;-79
2022/09/14 12:04:13;;;;;;;13.80;1.30;;;;;;;20.55;54.03;99463.50;2084543;28;20036;-79
2022/09/14 12:05:17;;;;;;;3.25;0.88;;;;;;;20.34;54.21;99455.78;2078469;28;20485;-79
2022/09/14 12:06:29;;;;;;;5.55;1.00;;;;;;;20.35;54.31;99456.56;2066939;28;20041;-77
2022/09/14 12:07:46;;;;;;;3.15;0.68;;;;;;;20.22;55.14;99460.69;2073375;28;20045;-77
2022/09/14 12:08:56;;;;;;;4.97;0.70;;;;;;;20.27;55.06;99449.44;2084311;28;20534;-77
2022/09/14 12:10:18;;;;;;;4.80;1.00;;;;;;;20.13;55.04;99467.19;2071324;28;20675;-79
2022/09/14 12:11:30;;;;;;;4.90;1.30;;;;;;;20.09;55.42;99458.19;2066245;28;20045;-75
2022/09/14 12:12:38;;;;;;;4.80;0.70;;;;;;;20.07;55.74;99462.44;2073214;28;20041;-78
2022/09/14 12:13:43;;;;;;;3.85;1.00;;;;;;;19.92;54.67;99458.72;2078915;28;20032;-69
2022/09/14 12:14:57;;;;;;;3.90;0.90;;;;;;;20.00;54.61;99463.13;2077656;28;20631;-73
2022/09/14 12:16:09;;;;;;;5.93;0.90;;;;;;;20.09;54.46;99463.66;2080654;28;20025;-74
2022/09/14 12:17:21;;;;;;;4.93;0.93;;;;;;;20.09;54.75;99458.19;2080631;28;20665;-73
2022/09/14 12:18:27;;;;;;;2.97;0.82;;;;;;;20.12;54.34;99462.91;2074876;28;20025;-71
2022/09/14 12:19:34;;;;;;;2.85;0.80;;;;;;;20.07;54.34;99460.50;2088092;28;20040;-73
2022/09/14 12:20:39;;;;;;;3.42;0.82;;;;;;;20.12;54.64;99457.47;2088330;28;20028;-73
2022/09/14 12:21:49;;;;;;;3.15;1.08;;;;;;;20.18;54.40;99457.94;2079473;28;20042;-73
2022/09/14 12:23:07;;;;;;;7.60;1.00;;;;;;;20.32;54.12;99469.00;2087129;28;20095;-71
2022/09/14 12:24:14;;;;;;;5.80;1.08;;;;;;;20.34;53.85;99476.84;2090388;28;20040;-71
2022/09/14 12:25:23;;;;;;;4.15;1.10;;;;;;;20.38;54.17;99469.47;2086066;28;20033;-74
2022/09/14 12:26:32;;;;;;;3.28;1.50;;;;;;;20.28;54.96;99467.41;2085508;28;20392;-73
2022/09/14 12:27:38;;;;;;;3.85;1.10;;;;;;;20.37;53.96;99470.66;2090828;28;20033;-73
2022/09/14 12:28:49;;;;;;;5.05;1.00;;;;;;;20.42;53.03;99472.25;2080512;28;20045;-76
2022/09/14 12:29:56;;;;;;;3.60;0.93;;;;;;;20.36;53.33;99475.31;2075087;28;20029;-75
2022/09/14 12:30:57;;;;;;;6.68;0.88;;;;;;;20.22;53.49;99474.34;2079459;28;20033;-75
2022/09/14 12:32:04;;;;;;;2.97;1.00;;;;;;;20.08;54.06;99469.47;2079154;28;20033;-75
2022/09/14 12:34:35;;;;;;;3.03;0.47;;;;;;;19.88;54.04;99469.56;2092658;28;20062;-75
2022/09/14 12:35:38;;;;;;;2.17;0.80;;;;;;;19.91;54.06;99473.53;2075527;28;20689;-76
2022/09/14 12:36:42;;;;;;;3.88;1.10;;;;;;;19.93;54.31;99471.22;2076634;28;20047;-77
2022/09/14 12:37:50;;;;;;;2.42;0.82;;;;;;;19.91;54.36;99471.56;2089199;28;20041;-79
2022/09/14 12:38:54;;;;;;;3.45;0.90;;;;;;;19.90;54.45;99474.69;2089644;28;20043;-77
2022/09/14 12:40:23;;;;;;;5.95;0.90;;;;;;;19.98;54.11;99479.06;2088656;28;20040;-75
2022/09/14 12:41:35;;;;;;;3.83;1.00;;;;;;;20.03;54.35;99478.75;2080720;28;20029;-76
2022/09/14 12:42:50;;;;;;;2.92;0.85;;;;;;;20.16;54.28;99473.88;2083622;28;20029;-76
2022/09/14 12:43:57;;;;;;;3.35;0.98;;;;;;;20.29;53.90;99477.16;2087971;28;20040;-81
2022/09/14 12:45:42;;;;;;;3.97;0.70;;;;;;;20.22;54.00;99477.84;2088419;28;20033;-75
2022/09/14 12:46:54;;;;;;;5.03;0.80;;;;;;;20.19;53.75;99469.63;2094669;28;20040;-77
2022/09/14 12:48:09;;;;;;;7.20;0.90;;;;;;;20.12;54.22;99460.19;2087458;28;20431;-74
2022/09/14 12:49:35;;;;;;;4.60;1.00;;;;;;;20.29;53.92;99482.63;2088785;28;20056;-77
2022/09/14 12:50:54;;;;;;;6.40;1.20;;;;;;;20.37;53.70;99473.38;2089217;28;20041;-80
2022/09/14 12:52:16;;;;;;;5.97;0.90;;;;;;;20.31;53.70;99472.91;2087920;28;20135;-78
2022/09/14 12:53:31;;;;;;;3.22;0.70;;;;;;;20.30;53.50;99476.00;2090896;28;20035;-78
2022/09/14 12:55:11;;;;;;;8.32;1.15;;;;;;;20.18;53.50;99466.13;2085639;28;20035;-77
2022/09/14 12:56:29;;;;;;;6.55;0.90;;;;;;;20.13;54.14;99471.88;2070710;28;20028;-76
2022/09/14 12:57:46;;;;;;;3.33;0.68;;;;;;;20.14;54.40;99474.25;2086065;28;20087;-74
2022/09/14 12:59:11;;;;;;;7.60;0.95;;;;;;;20.16;54.62;99481.28;2078250;28;20405;-74
2022/09/14 13:00:19;;;;;;;7.07;1.08;;;;;;;20.27;55.30;99484.91;2089153;28;20045;-72
2022/09/14 13:01:33;;;;;;;3.85;1.23;;;;;;;20.30;55.80;99486.91;2089703;28;20029;-75
2022/09/14 13:02:39;;;;;;;4.57;0.80;;;;;;;20.22;55.27;99474.34;2070135;28;20038;-73
2022/09/14 13:03:43;;;;;;;3.78;1.15;;;;;;;20.19;55.17;99481.31;2070580;28;20041;-73
2022/09/14 13:04:54;;;;;;;2.92;1.40;;;;;;;20.34;54.51;99480.34;2079237;28;20045;-73
2022/09/14 13:06:01;;;;;;;8.52;2.13;;;;;;;20.42;54.23;99483.16;2082162;28;20025;-75
2022/09/14 13:07:06;;;;;;;4.90;1.35;;;;;;;20.33;54.07;99477.97;2082183;28;20045;-72
2022/09/14 13:08:11;;;;;;;8.10;2.35;;;;;;;20.37;54.17;99473.38;2081375;28;20082;-72
2022/09/14 13:09:20;;;;;;;4.63;1.58;;;;;;;20.21;53.91;99483.66;2078803;28;20507;-74
2022/09/14 13:10:32;;;;;;;3.42;0.85;;;;;;;20.01;54.36;99466.63;2075144;28;20037;-73
2022/09/14 13:11:40;;;;;;;3.63;0.77;;;;;;;20.04;55.17;99485.78;2086135;28;20041;-75
2022/09/14 13:12:48;;;;;;;8.25;2.17;;;;;;;20.10;55.09;99487.03;2084273;28;20051;-75
2022/09/14 13:13:51;;;;;;;3.03;0.80;;;;;;;20.08;54.68;99492.09;2072521;28;20030;-73
2022/09/14 13:15:06;;;;;;;4.93;0.90;;;;;;;20.04;54.89;99485.78;2079225;28;20041;-73
2022/09/14 13:16:16;;;;;;;2.92;0.88;;;;;;;20.07;54.94;99495.97;2086875;28;20029;-74
2022/09/14 13:17:24;;;;;;;3.67;0.75;;;;;;;20.04;55.02;99491.25;2081820;28;20044;-74
2022/09/14 13:18:35;;;;;;;5.22;0.90;;;;;;;19.98;55.17;99503.63;2082464;28;20041;-73
2022/09/14 13:19:37;;;;;;;4.32;1.25;;;;;;;19.94;55.62;99494.59;2079304;28;20029;-73
2022/09/14 13:20:52;;;;;;;4.38;0.80;;;;;;;19.92;55.37;99494.19;2073459;28;20037;-74